createdAt,value
2023-05-18T00:02:21.774Z,5.67
2023-05-18T00:04:49.957Z,5.60
2023-05-18T00:07:19.276Z,5.53
2023-05-18T00:09:47.237Z,5.73
2023-05-18T00:12:15.299Z,6.40
2023-05-18T00:14:43.204Z,6.27
2023-05-18T00:17:11.103Z,5.13
2023-05-18T00:19:40.713Z,5.27
2023-05-18T00:22:08.881Z,4.50
2023-05-18T00:24:38.183Z,4.90
2023-05-18T00:27:06.174Z,4.77
2023-05-18T00:29:34.094Z,5.50
2023-05-18T00:32:02.026Z,5.50
2023-05-18T00:34:30.002Z,5.50
2023-05-18T00:36:57.906Z,5.77
2023-05-18T00:39:25.827Z,6.57
2023-05-18T00:41:55.137Z,7.37
2023-05-18T00:44:23.023Z,6.93
2023-05-18T00:46:51.231Z,7.40
2023-05-18T00:49:19.985Z,7.30
2023-05-18T00:51:48.090Z,6.83
2023-05-18T00:54:17.158Z,5.87
2023-05-18T00:56:46.361Z,6.40
2023-05-18T00:59:16.205Z,6.20
2023-05-18T01:01:46.609Z,5.73
2023-05-18T01:04:15.235Z,4.90
2023-05-18T01:06:43.995Z,4.90
2023-05-18T01:09:13.700Z,4.97
2023-05-18T01:11:57.317Z,5.73
2023-05-18T01:14:34.025Z,4.97
2023-05-18T01:17:11.392Z,6.63
2023-05-18T01:20:08.152Z,5.87
2023-05-18T01:22:50.599Z,5.83
2023-05-18T01:25:30.156Z,5.77
2023-05-18T01:28:06.133Z,6.10
2023-05-18T01:30:35.287Z,5.80
2023-05-18T01:33:08.452Z,5.90
2023-05-18T01:35:36.990Z,6.13
2023-05-18T01:38:08.384Z,5.83
2023-05-18T01:40:43.135Z,5.80
2023-05-18T01:43:17.343Z,5.00
2023-05-18T01:45:48.464Z,4.13
2023-05-18T01:48:21.920Z,4.50
2023-05-18T01:50:53.249Z,4.40
2023-05-18T01:53:26.381Z,4.20
2023-05-18T01:55:56.145Z,4.33
2023-05-18T01:58:26.408Z,3.90
2023-05-18T02:00:54.373Z,4.20
2023-05-18T02:03:22.460Z,3.97
2023-05-18T02:05:50.596Z,4.30
2023-05-18T02:08:18.588Z,3.60
2023-05-18T02:10:46.588Z,3.90
2023-05-18T02:13:14.474Z,4.70
2023-05-18T02:15:44.526Z,4.80
2023-05-18T02:18:12.444Z,4.67
2023-05-18T02:20:40.562Z,4.83
2023-05-18T02:23:08.500Z,4.80
2023-05-18T02:25:37.257Z,4.77
2023-05-18T02:28:05.746Z,4.50
2023-05-18T02:30:34.605Z,4.60
2023-05-18T02:33:04.482Z,4.90
2023-05-18T02:35:32.674Z,4.50
2023-05-18T02:38:00.959Z,4.47
2023-05-18T02:40:28.847Z,3.80
2023-05-18T02:42:56.854Z,4.13
2023-05-18T02:45:24.717Z,4.23
2023-05-18T02:47:52.703Z,4.60
2023-05-18T02:50:22.280Z,4.20
2023-05-18T02:52:50.410Z,4.80
2023-05-18T02:55:19.108Z,4.20
2023-05-18T02:57:48.209Z,4.07
2023-05-18T03:00:18.133Z,4.23
2023-05-18T03:02:48.547Z,4.70
2023-05-18T03:05:18.594Z,4.70
2023-05-18T03:07:50.999Z,5.43
2023-05-18T03:10:19.395Z,5.00
2023-05-18T03:12:47.544Z,4.87
2023-05-18T03:15:16.187Z,5.00
2023-05-18T03:17:44.236Z,5.10
2023-05-18T03:20:14.536Z,4.80
2023-05-18T03:22:42.723Z,4.53
2023-05-18T03:25:12.263Z,4.13
2023-05-18T03:27:40.125Z,4.67
2023-05-18T03:30:09.538Z,4.63
2023-05-18T03:32:38.100Z,5.10
2023-05-18T03:35:06.713Z,5.10
2023-05-18T03:37:34.802Z,4.83
2023-05-18T03:40:14.137Z,4.13
2023-05-18T03:42:43.460Z,3.97
2023-05-18T03:45:12.439Z,4.20
2023-05-18T03:47:41.233Z,4.37
2023-05-18T03:50:09.659Z,5.03
2023-05-18T03:52:37.905Z,5.00
2023-05-18T03:55:06.597Z,4.80
2023-05-18T03:57:35.912Z,5.00
2023-05-18T04:00:13.506Z,4.80
2023-05-18T04:02:41.650Z,4.43
2023-05-18T04:05:10.497Z,4.93
2023-05-18T04:07:44.080Z,5.37
2023-05-18T04:10:12.699Z,5.00
2023-05-18T04:12:42.209Z,5.27
2023-05-18T04:15:10.759Z,5.27
2023-05-18T04:17:43.562Z,4.93
2023-05-18T04:20:14.028Z,4.27
2023-05-18T04:22:46.586Z,5.50
2023-05-18T04:25:14.931Z,4.93
2023-05-18T04:27:45.606Z,5.43
2023-05-18T04:30:14.639Z,5.73
2023-05-18T04:32:43.750Z,4.80
2023-05-18T04:35:12.701Z,4.67
2023-05-18T04:37:41.412Z,5.10
2023-05-18T04:40:13.438Z,4.57
2023-05-18T04:42:45.519Z,4.90
2023-05-18T04:45:17.784Z,4.70
2023-05-18T04:47:47.311Z,4.50
2023-05-18T04:50:19.004Z,4.67
2023-05-18T04:52:49.289Z,5.00
2023-05-18T04:55:23.113Z,4.70
2023-05-18T04:57:54.039Z,4.23
2023-05-18T05:00:25.221Z,4.90
2023-05-18T05:02:53.465Z,3.93
2023-05-18T05:05:22.175Z,4.13
2023-05-18T05:07:51.357Z,4.20
2023-05-18T05:10:19.648Z,3.97
2023-05-18T05:12:49.464Z,3.70
2023-05-18T05:15:18.114Z,4.27
2023-05-18T05:17:47.718Z,4.27
2023-05-18T05:20:15.704Z,4.03
2023-05-18T05:22:43.633Z,4.17
2023-05-18T05:25:12.089Z,4.20
2023-05-18T05:27:40.071Z,5.33
2023-05-18T05:30:09.229Z,3.40
2023-05-18T05:32:37.238Z,3.67
2023-05-18T05:35:07.421Z,3.10
2023-05-18T05:37:36.107Z,3.10
2023-05-18T05:40:06.488Z,3.40
2023-05-18T05:42:34.775Z,3.00
2023-05-18T05:45:02.856Z,3.10
2023-05-18T05:47:31.003Z,3.00
2023-05-18T05:49:58.998Z,3.67
2023-05-18T05:52:29.133Z,4.13
2023-05-18T05:54:57.404Z,3.03
2023-05-18T05:57:25.809Z,3.27
2023-05-18T05:59:53.812Z,3.53
2023-05-18T06:02:21.896Z,3.40
2023-05-18T06:04:49.805Z,2.70
2023-05-18T06:07:17.694Z,3.07
2023-05-18T06:09:46.953Z,3.30
2023-05-18T06:12:15.430Z,3.17
2023-05-18T06:14:43.370Z,2.93
2023-05-18T06:17:11.251Z,3.00
2023-05-18T06:19:39.301Z,2.90
2023-05-18T06:22:07.235Z,3.10
2023-05-18T06:24:35.119Z,2.80
2023-05-18T06:27:05.536Z,3.13
2023-05-18T06:29:33.398Z,3.00
2023-05-18T06:32:01.691Z,3.17
2023-05-18T06:34:29.845Z,3.07
2023-05-18T06:36:58.664Z,3.90
2023-05-18T06:39:26.655Z,3.83
2023-05-18T06:41:54.544Z,3.00
2023-05-18T06:44:23.808Z,3.07
2023-05-18T06:46:51.724Z,2.90
2023-05-18T06:49:19.683Z,3.03
2023-05-18T06:51:47.555Z,3.50
2023-05-18T06:54:15.504Z,3.30
2023-05-18T06:56:43.390Z,3.00
2023-05-18T06:59:11.312Z,3.20
2023-05-18T07:01:41.362Z,3.30
2023-05-18T07:04:09.407Z,3.67
2023-05-18T07:06:37.690Z,2.70
2023-05-18T07:09:06.136Z,3.43
2023-05-18T07:11:33.989Z,3.77
2023-05-18T07:14:01.983Z,2.90
2023-05-18T07:16:30.004Z,3.15
2023-05-18T07:18:59.839Z,3.20
2023-05-18T07:21:27.899Z,2.50
2023-05-18T07:23:55.819Z,3.40
2023-05-18T07:26:23.946Z,3.10
2023-05-18T07:28:52.476Z,2.90
2023-05-18T07:31:21.765Z,3.05
2023-05-18T07:33:49.956Z,2.90
2023-05-18T07:36:19.283Z,3.22
2023-05-18T07:38:47.513Z,3.20
2023-05-18T07:41:15.511Z,2.88
2023-05-18T07:43:43.447Z,3.25
2023-05-18T07:46:11.379Z,2.65
2023-05-18T07:48:41.032Z,2.42
2023-05-18T07:51:09.389Z,2.95
2023-05-18T07:53:39.575Z,3.10
2023-05-18T07:56:08.786Z,2.63
2023-05-18T07:58:37.372Z,3.00
2023-05-18T08:01:05.406Z,2.45
2023-05-18T08:03:33.420Z,2.40
2023-05-18T08:06:01.408Z,2.75
2023-05-18T08:08:31.871Z,2.83
2023-05-18T08:11:01.256Z,3.00
2023-05-18T08:13:29.566Z,2.75
2023-05-18T08:16:10.544Z,2.97
2023-05-18T08:18:39.975Z,2.58
2023-05-18T08:21:10.095Z,2.67
2023-05-18T08:23:38.892Z,2.70
2023-05-18T08:26:10.506Z,3.05
2023-05-18T08:28:39.411Z,2.60
2023-05-18T08:31:07.349Z,2.60
2023-05-18T08:33:35.269Z,3.20
2023-05-18T08:36:03.581Z,3.10
2023-05-18T08:38:32.186Z,2.90
2023-05-18T08:41:07.218Z,2.55
2023-05-18T08:43:39.749Z,3.13
2023-05-18T08:46:14.814Z,3.05
2023-05-18T08:48:44.700Z,3.28
2023-05-18T08:51:14.357Z,3.10
2023-05-18T08:53:43.283Z,2.70
2023-05-18T08:56:12.758Z,2.90
2023-05-18T08:58:46.005Z,3.13
2023-05-18T09:01:15.106Z,2.83
2023-05-18T09:03:45.369Z,3.30
2023-05-18T09:06:15.735Z,2.80
2023-05-18T09:08:44.434Z,2.63
2023-05-18T09:11:14.764Z,3.00
2023-05-18T09:13:45.446Z,3.10
2023-05-18T09:16:13.450Z,2.97
2023-05-18T09:18:41.476Z,3.03
2023-05-18T09:21:09.551Z,3.00
2023-05-18T09:23:40.197Z,2.83
2023-05-18T09:26:10.094Z,2.90
2023-05-18T09:28:39.491Z,2.92
2023-05-18T09:31:12.676Z,3.90
2023-05-18T09:33:41.847Z,3.00
2023-05-18T09:36:12.174Z,3.10
2023-05-18T09:38:43.312Z,3.15
2023-05-18T09:41:43.926Z,3.17
2023-05-18T09:44:12.770Z,3.38
2023-05-18T09:46:42.367Z,3.17
2023-05-18T09:49:10.413Z,3.60
2023-05-18T09:51:38.893Z,3.03
2023-05-18T09:54:22.393Z,2.85
2023-05-18T09:57:08.433Z,3.40
2023-05-18T09:59:37.750Z,3.40
2023-05-18T10:02:09.005Z,3.28
2023-05-18T10:04:38.463Z,3.03
2023-05-18T10:07:12.424Z,4.03
2023-05-18T10:09:41.445Z,3.65
2023-05-18T10:12:13.405Z,3.33
2023-05-18T10:14:43.019Z,3.30
2023-05-18T10:17:16.602Z,3.20
2023-05-18T10:19:49.602Z,3.60
2023-05-18T10:22:19.723Z,3.60
2023-05-18T10:24:51.712Z,4.13
2023-05-18T10:27:29.035Z,3.70
2023-05-18T10:29:59.652Z,3.55
2023-05-18T10:32:39.259Z,3.30
2023-05-18T10:35:09.605Z,3.05
2023-05-18T10:37:40.516Z,3.28
2023-05-18T10:40:11.349Z,3.35
2023-05-18T10:42:40.765Z,3.10
2023-05-18T10:45:12.100Z,2.60
2023-05-18T10:47:43.715Z,3.20
2023-05-18T10:50:12.285Z,3.35
2023-05-18T10:52:45.796Z,2.92
2023-05-18T10:55:14.257Z,3.08
2023-05-18T10:57:53.469Z,2.90
2023-05-18T11:00:21.724Z,2.47
2023-05-18T11:02:52.044Z,2.95
2023-05-18T11:05:25.771Z,3.13
2023-05-18T11:08:01.946Z,2.90
2023-05-18T11:10:36.192Z,3.15
2023-05-18T11:13:04.616Z,2.90
2023-05-18T11:16:05.245Z,2.75
2023-05-18T11:18:43.715Z,3.08
2023-05-18T11:21:20.800Z,2.85
2023-05-18T11:24:23.476Z,3.03
2023-05-18T11:26:53.358Z,3.60
2023-05-18T11:29:25.804Z,2.92
2023-05-18T11:31:55.695Z,3.35
2023-05-18T11:34:44.683Z,3.03
2023-05-18T11:37:46.374Z,3.17
2023-05-18T11:40:46.876Z,2.45
2023-05-18T11:43:22.096Z,3.05
2023-05-18T11:45:53.750Z,2.90
2023-05-18T11:48:23.460Z,2.90
2023-05-18T11:50:55.952Z,2.50
2023-05-18T11:53:25.007Z,2.80
2023-05-18T11:55:54.716Z,2.80
2023-05-18T11:58:25.320Z,2.92
2023-05-18T12:00:54.353Z,2.50
2023-05-18T12:03:25.100Z,2.58
2023-05-18T12:05:53.339Z,2.75
2023-05-18T12:08:29.592Z,2.83
2023-05-18T12:10:58.533Z,2.70
2023-05-18T12:13:27.731Z,2.90
2023-05-18T12:15:59.207Z,2.75
2023-05-18T12:18:33.266Z,2.95
2023-05-18T12:21:05.300Z,2.53
2023-05-18T12:23:40.525Z,2.50
2023-05-18T12:26:08.509Z,2.72
2023-05-18T12:28:37.162Z,2.63
2023-05-18T12:31:08.508Z,2.50
2023-05-18T12:33:36.480Z,2.83
2023-05-18T12:36:04.673Z,2.70
2023-05-18T12:38:32.954Z,2.70
2023-05-18T12:41:02.436Z,2.53
2023-05-18T12:43:34.914Z,2.40
2023-05-18T12:46:02.980Z,2.60
2023-05-18T12:48:37.340Z,2.47
2023-05-18T12:51:06.959Z,2.90
2023-05-18T12:53:42.866Z,2.37
2023-05-18T12:56:12.819Z,2.30
2023-05-18T12:58:41.668Z,2.60
2023-05-18T13:01:12.117Z,2.50
2023-05-18T13:03:41.901Z,2.10
2023-05-18T13:06:10.617Z,2.40
2023-05-18T13:08:38.601Z,2.83
2023-05-18T13:11:13.725Z,2.47
2023-05-18T13:14:02.332Z,2.37
2023-05-18T13:16:30.804Z,2.60
2023-05-18T13:19:00.786Z,2.30
2023-05-18T13:21:29.319Z,2.40
2023-05-18T13:23:57.222Z,2.77
2023-05-18T13:26:26.338Z,2.60
2023-05-18T13:28:55.940Z,2.40
2023-05-18T13:31:26.167Z,2.27
2023-05-18T13:33:54.183Z,2.67
2023-05-18T13:36:22.353Z,2.53
2023-05-18T13:38:50.266Z,2.30
2023-05-18T13:41:19.362Z,2.40
2023-05-18T13:43:47.260Z,2.27
2023-05-18T13:46:15.209Z,2.10
2023-05-18T13:48:44.594Z,2.73
2023-05-18T13:51:12.503Z,2.60
2023-05-18T13:53:40.954Z,2.40
2023-05-18T13:56:09.160Z,2.50
2023-05-18T13:58:37.137Z,2.30
2023-05-18T14:01:08.452Z,2.47
2023-05-18T14:03:37.761Z,2.47
2023-05-18T14:06:07.643Z,2.50
2023-05-18T14:08:35.656Z,2.83
2023-05-18T14:11:03.530Z,2.60
2023-05-18T14:13:31.444Z,2.33
2023-05-18T14:15:59.546Z,2.77
2023-05-18T14:18:27.420Z,2.30
2023-05-18T14:20:57.712Z,2.67
2023-05-18T14:23:27.109Z,2.70
2023-05-18T14:25:55.059Z,2.50
2023-05-18T14:28:22.913Z,2.80
2023-05-18T14:30:50.845Z,2.23
2023-05-18T14:33:18.793Z,2.40
2023-05-18T14:35:47.181Z,2.30
2023-05-18T14:38:15.084Z,2.50
2023-05-18T14:40:44.353Z,2.37
2023-05-18T14:43:12.538Z,2.20
2023-05-18T14:45:40.469Z,2.40
2023-05-18T14:48:09.721Z,2.07
2023-05-18T14:50:38.837Z,2.40
2023-05-18T14:53:07.076Z,2.50
2023-05-18T14:55:35.043Z,2.67
2023-05-18T14:58:06.267Z,2.60
2023-05-18T15:00:34.466Z,2.80
2023-05-18T15:03:03.599Z,2.60
2023-05-18T15:05:31.564Z,2.90
2023-05-18T15:07:59.671Z,2.50
2023-05-18T15:10:27.691Z,2.63
2023-05-18T15:12:55.573Z,2.50
2023-05-18T15:15:26.539Z,2.73
2023-05-18T15:17:54.859Z,2.83
2023-05-18T15:20:23.649Z,2.90
2023-05-18T15:22:51.836Z,2.73
2023-05-18T15:25:20.204Z,3.50
2023-05-18T15:27:49.309Z,3.00
2023-05-18T15:30:17.203Z,2.70
2023-05-18T15:32:46.566Z,2.70
2023-05-18T15:35:16.182Z,2.97
2023-05-18T15:37:44.209Z,2.97
2023-05-18T15:40:12.834Z,2.63
2023-05-18T15:42:40.785Z,3.07
2023-05-18T15:45:09.583Z,2.57
2023-05-18T15:47:37.526Z,2.73
2023-05-18T15:50:08.176Z,2.93
2023-05-18T15:52:36.142Z,2.83
2023-05-18T15:55:04.019Z,2.60
2023-05-18T15:57:33.133Z,3.07
2023-05-18T16:00:01.285Z,3.00
2023-05-18T16:02:29.276Z,2.57
2023-05-18T16:04:57.185Z,2.30
2023-05-18T16:07:26.461Z,2.80
2023-05-18T16:09:54.352Z,2.70
2023-05-18T16:12:22.344Z,3.63
2023-05-18T16:14:50.357Z,2.90
2023-05-18T16:17:18.498Z,3.07
2023-05-18T16:19:46.453Z,2.70
2023-05-18T16:22:14.318Z,2.83
2023-05-18T16:24:44.383Z,3.10
2023-05-18T16:27:12.294Z,2.87
2023-05-18T16:29:41.449Z,2.77
2023-05-18T16:32:09.416Z,2.87
2023-05-18T16:34:37.352Z,2.70
2023-05-18T16:37:05.647Z,3.00
2023-05-18T16:39:33.655Z,3.27
2023-05-18T16:42:02.884Z,3.00
2023-05-18T16:44:30.804Z,3.47
2023-05-18T16:46:58.695Z,3.30
2023-05-18T16:49:26.619Z,3.33
2023-05-18T16:51:54.529Z,3.97
2023-05-18T16:54:22.403Z,3.77
2023-05-18T16:56:50.281Z,3.30
2023-05-18T16:59:22.844Z,3.53
2023-05-18T17:01:50.796Z,3.23
2023-05-18T17:04:18.889Z,3.60
2023-05-18T17:06:46.867Z,3.20
2023-05-18T17:09:16.387Z,3.03
2023-05-18T17:11:44.567Z,3.00
2023-05-18T17:14:12.477Z,3.40
2023-05-18T17:16:41.769Z,3.60
2023-05-18T17:19:09.852Z,3.70
2023-05-18T17:21:37.749Z,3.03
2023-05-18T17:24:06.243Z,3.87
2023-05-18T17:26:34.166Z,3.37
2023-05-18T17:29:02.093Z,3.57
2023-05-18T17:31:30.482Z,2.87
2023-05-18T17:33:59.810Z,2.97
2023-05-18T17:36:27.807Z,3.40
2023-05-18T17:38:56.228Z,3.37
2023-05-18T17:41:25.946Z,3.17
2023-05-18T17:43:53.904Z,3.00
2023-05-18T17:46:21.855Z,3.40
2023-05-18T17:48:49.841Z,3.30
2023-05-18T17:51:19.111Z,3.37
2023-05-18T17:53:47.001Z,3.23
2023-05-18T17:56:15.081Z,3.20
2023-05-18T17:58:43.106Z,3.10
2023-05-18T18:01:12.162Z,3.60
2023-05-18T18:03:40.319Z,2.93
2023-05-18T18:06:08.729Z,3.40
2023-05-18T18:08:38.096Z,3.40
2023-05-18T18:11:09.041Z,3.77
2023-05-18T18:13:37.276Z,3.90
2023-05-18T18:16:05.632Z,3.67
2023-05-18T18:18:36.186Z,4.70
2023-05-18T18:21:04.240Z,4.90
2023-05-18T18:23:32.268Z,9.30
2023-05-18T18:26:02.767Z,5.87
2023-05-18T18:28:31.072Z,4.50
2023-05-18T18:30:59.482Z,4.60
2023-05-18T18:33:27.927Z,3.80
2023-05-18T18:35:58.330Z,3.73
2023-05-18T18:38:27.214Z,3.17
2023-05-18T18:41:00.740Z,3.80
2023-05-18T18:43:30.185Z,3.40
2023-05-18T18:45:58.498Z,5.03
2023-05-18T18:48:26.622Z,2.90
2023-05-18T18:50:54.654Z,3.50
2023-05-18T18:53:22.659Z,3.10
2023-05-18T18:55:50.942Z,2.97
2023-05-18T18:58:18.844Z,3.30
2023-05-18T19:00:49.530Z,3.73
2023-05-18T19:03:17.493Z,3.57
2023-05-18T19:05:45.542Z,3.40
2023-05-18T19:08:13.830Z,2.80
2023-05-18T19:10:41.960Z,3.30
2023-05-18T19:13:09.945Z,2.90
2023-05-18T19:15:38.392Z,3.27
2023-05-18T19:18:08.058Z,3.40
2023-05-18T19:20:36.119Z,2.87
2023-05-18T19:23:05.691Z,3.30
2023-05-18T19:25:34.029Z,3.20
2023-05-18T19:28:02.444Z,2.93
2023-05-18T19:30:30.953Z,3.07
2023-05-18T19:32:58.942Z,2.90
2023-05-18T19:35:29.018Z,2.90
2023-05-18T19:37:57.270Z,3.00
2023-05-18T19:40:27.263Z,2.97
2023-05-18T19:42:55.586Z,2.80
2023-05-18T19:45:23.467Z,3.43
2023-05-18T19:47:51.381Z,2.93
2023-05-18T19:50:19.382Z,2.83
2023-05-18T19:52:49.492Z,2.87
2023-05-18T19:55:18.216Z,2.57
2023-05-18T19:57:46.106Z,3.00
2023-05-18T20:00:14.340Z,2.70
2023-05-18T20:02:43.835Z,2.87
2023-05-18T20:05:13.287Z,3.00
2023-05-18T20:07:41.225Z,3.30
2023-05-18T20:10:10.905Z,2.87
2023-05-18T20:12:38.877Z,3.00
2023-05-18T20:15:08.938Z,3.10
2023-05-18T20:17:37.587Z,2.90
2023-05-18T20:20:06.237Z,2.90
2023-05-18T20:22:34.430Z,3.00
2023-05-18T20:25:05.574Z,3.10
2023-05-18T20:27:34.986Z,3.10
2023-05-18T20:30:03.245Z,3.30
2023-05-18T20:32:32.683Z,3.50
2023-05-18T20:35:00.964Z,2.80
2023-05-18T20:37:28.919Z,3.30
2023-05-18T20:40:00.361Z,3.00
2023-05-18T20:42:38.790Z,2.93
2023-05-18T20:45:09.190Z,2.70
2023-05-18T20:47:37.170Z,3.00
2023-05-18T20:50:05.667Z,3.00
2023-05-18T20:52:33.585Z,3.03
2023-05-18T20:55:01.504Z,2.87
2023-05-18T20:57:30.926Z,3.00
2023-05-18T20:59:58.810Z,3.03
2023-05-18T21:02:28.219Z,3.37
2023-05-18T21:04:57.986Z,3.10
2023-05-18T21:07:26.289Z,3.10
2023-05-18T21:09:54.167Z,3.60
2023-05-18T21:12:22.134Z,3.07
2023-05-18T21:14:50.020Z,3.20
2023-05-18T21:17:17.897Z,3.10
2023-05-18T21:19:47.319Z,3.00
2023-05-18T21:22:15.205Z,3.20
2023-05-18T21:24:43.255Z,3.10
2023-05-18T21:27:11.324Z,3.07
2023-05-18T21:29:39.296Z,2.77
2023-05-18T21:32:07.704Z,3.27
2023-05-18T21:34:36.001Z,2.93
2023-05-18T21:37:05.653Z,3.80
2023-05-18T21:39:33.514Z,3.30
2023-05-18T21:42:02.616Z,3.50
2023-05-18T21:44:30.791Z,3.50
2023-05-18T21:46:58.749Z,3.13
2023-05-18T21:49:26.564Z,3.20
2023-05-18T21:51:54.515Z,3.40
2023-05-18T21:54:23.736Z,3.80
2023-05-18T21:56:51.630Z,3.40
2023-05-18T21:59:19.560Z,4.20
2023-05-18T22:01:47.483Z,3.80
2023-05-18T22:04:15.481Z,3.40
2023-05-18T22:06:43.439Z,3.53
2023-05-18T22:09:11.362Z,3.90
2023-05-18T22:11:40.736Z,3.70
2023-05-18T22:14:08.605Z,3.87
2023-05-18T22:16:36.640Z,3.57
2023-05-18T22:19:04.657Z,3.80
2023-05-18T22:21:32.594Z,3.70
2023-05-18T22:24:00.912Z,3.97
2023-05-18T22:26:28.847Z,3.87
2023-05-18T22:28:58.217Z,4.47
2023-05-18T22:31:26.328Z,4.10
2023-05-18T22:33:54.327Z,4.33
2023-05-18T22:36:22.757Z,3.60
2023-05-18T22:38:52.391Z,4.43
2023-05-18T22:41:20.360Z,4.10
2023-05-18T22:43:48.254Z,4.07
2023-05-18T22:46:17.561Z,4.13
2023-05-18T22:48:45.520Z,4.00
2023-05-18T22:51:13.417Z,3.70
2023-05-18T22:53:41.273Z,3.57
2023-05-18T22:56:09.311Z,3.60
2023-05-18T22:58:37.342Z,3.70
2023-05-18T23:01:05.219Z,4.10
2023-05-18T23:03:34.501Z,3.70
2023-05-18T23:06:03.191Z,3.83
2023-05-18T23:08:31.429Z,3.90
2023-05-18T23:11:01.768Z,3.60
2023-05-18T23:13:31.007Z,3.70
2023-05-18T23:16:00.796Z,4.00
2023-05-18T23:18:29.022Z,4.00
2023-05-18T23:20:58.739Z,3.90
2023-05-18T23:23:26.958Z,4.10
2023-05-18T23:25:54.973Z,3.87
2023-05-18T23:28:22.815Z,3.50
2023-05-18T23:30:50.640Z,3.60
2023-05-18T23:33:19.063Z,3.60
2023-05-18T23:35:47.574Z,3.70
2023-05-18T23:38:19.873Z,3.30
2023-05-18T23:40:48.560Z,3.20
2023-05-18T23:43:16.923Z,3.27
2023-05-18T23:45:45.294Z,3.10
2023-05-18T23:48:14.032Z,3.10
2023-05-18T23:50:43.598Z,3.27
2023-05-18T23:53:13.596Z,2.93
2023-05-18T23:55:43.854Z,3.50
2023-05-18T23:58:12.450Z,2.80
